Time;durP1;ratioP1;P1;durP2;ratioP2;P2;SDS_P1;SDS_P2;PMS_P1;PMS_P2;Temp;Humidity;BMP_temperature;BMP_pressure;BME280_temperature;BME280_humidity;BME280_pressure;Samples;Min_cycle;Max_cycle;Signal;HPM_P1;HPM_P2
2022/01/25 00:28:17;;;;;;;10.93;6.80;;;;;;;;;;5021662;28;20069;-79
2022/01/25 00:30:58;;;;;;;12.10;7.50;;;;;;;;;;5023542;28;20357;-81
2022/01/25 00:33:25;;;;;;;12.80;7.47;;;;;;;;;;5023421;28;20045;-80
2022/01/25 00:35:54;;;;;;;14.00;6.07;;;;;;;;;;5037905;28;20025;-78
2022/01/25 00:38:21;;;;;;;13.10;8.67;;;;;;;;;;5023287;28;20037;-77
2022/01/25 00:40:48;;;;;;;12.10;7.37;;;;;;;;;;5036092;28;20357;-79
2022/01/25 00:43:14;;;;;;;13.47;6.13;;;;;;;;;;5037706;28;20266;-82
2022/01/25 00:45:40;;;;;;;13.97;6.50;;;;;;;;;;5022821;28;20533;-80
2022/01/25 00:48:16;;;;;;;12.73;6.93;;;;;;;;;;5037669;28;20037;-80
2022/01/25 00:50:44;;;;;;;14.33;6.83;;;;;;;;;;5022436;28;20026;-80
2022/01/25 00:55:54;;;;;;;11.23;5.73;;;;;;;;;;5021882;28;20051;-80
2022/01/25 00:58:20;;;;;;;10.67;7.03;;;;;;;;;;5036690;28;20037;-79
2022/01/25 01:00:46;;;;;;;10.93;6.47;;;;;;;;;;5037590;28;20531;-83
2022/01/25 01:03:12;;;;;;;11.07;6.90;;;;;;;;;;5022845;28;20052;-80
2022/01/25 01:05:39;;;;;;;10.83;6.37;;;;;;;;;;5023308;28;20034;-75
2022/01/25 01:08:06;;;;;;;13.60;7.33;;;;;;;;;;5036860;28;20076;-82
2022/01/25 01:10:32;;;;;;;12.90;6.87;;;;;;;;;;5021236;28;20484;-82
2022/01/25 01:13:46;;;;;;;12.83;6.53;;;;;;;;;;5023751;28;20256;-80
2022/01/25 01:16:17;;;;;;;12.80;7.77;;;;;;;;;;5022429;28;20045;-80
2022/01/25 01:30:07;;;;;;;10.67;6.73;;;;;;;;;;5021996;28;20323;-79
2022/01/25 01:50:54;;;;;;;10.88;5.78;;;;;;;;;;5023302;28;20048;-77
2022/01/25 01:53:20;;;;;;;13.03;6.30;;;;;;;;;;5021003;28;20060;-79
2022/01/25 01:55:46;;;;;;;11.00;6.77;;;;;;;;;;5020903;28;20636;-80
2022/01/25 01:58:13;;;;;;;12.63;7.43;;;;;;;;;;5036219;28;20037;-78
2022/01/25 02:00:41;;;;;;;11.03;6.33;;;;;;;;;;5022404;28;20112;-79
2022/01/25 02:03:07;;;;;;;12.00;7.20;;;;;;;;;;5035740;28;20076;-82
2022/01/25 02:05:34;;;;;;;12.70;7.73;;;;;;;;;;5022947;28;20253;-80
2022/01/25 02:08:02;;;;;;;10.67;6.80;;;;;;;;;;5021249;28;20034;-77
2022/01/25 02:10:28;;;;;;;10.70;6.27;;;;;;;;;;5019379;28;20112;-78
2022/01/25 02:12:54;;;;;;;13.53;6.57;;;;;;;;;;5022736;28;20120;-79
2022/01/25 02:15:25;;;;;;;12.40;7.10;;;;;;;;;;5035450;28;20227;-82
2022/01/25 02:22:22;;;;;;;11.30;6.37;;;;;;;;;;5020893;28;20171;-79
2022/01/25 02:23:26;;;;;;;14.50;7.37;;;;;;;;;;5018637;28;20052;-81
2022/01/25 02:25:54;;;;;;;12.87;6.57;;;;;;;;;;5022129;28;20072;-79
2022/01/25 02:28:21;;;;;;;15.87;7.20;;;;;;;;;;5026505;28;20041;-80
2022/01/25 02:30:49;;;;;;;13.00;7.53;;;;;;;;;;5021687;28;20053;-79
2022/01/25 02:33:15;;;;;;;12.17;7.27;;;;;;;;;;5033958;28;20038;-80
2022/01/25 02:35:44;;;;;;;9.87;7.00;;;;;;;;;;5022645;28;20043;-82
2022/01/25 02:38:10;;;;;;;12.27;7.33;;;;;;;;;;5036848;28;20038;-78
2022/01/25 02:40:36;;;;;;;10.70;7.17;;;;;;;;;;5021218;28;20039;-80
2022/01/25 02:43:05;;;;;;;11.33;7.27;;;;;;;;;;5019937;28;20120;-78
2022/01/25 02:45:34;;;;;;;11.77;7.63;;;;;;;;;;5035069;28;20038;-78
2022/01/25 02:50:45;;;;;;;18.50;8.43;;;;;;;;;;5019226;28;20090;-80
2022/01/25 02:53:11;;;;;;;13.57;7.73;;;;;;;;;;5035635;28;20037;-80
2022/01/25 02:55:41;;;;;;;15.03;9.83;;;;;;;;;;5021139;28;20271;-81
2022/01/25 02:58:08;;;;;;;12.77;8.23;;;;;;;;;;5019352;28;20356;-81
2022/01/25 03:00:34;;;;;;;14.27;8.73;;;;;;;;;;5017231;28;20276;-81
2022/01/25 03:03:02;;;;;;;13.27;8.03;;;;;;;;;;5032507;28;20505;-78
2022/01/25 03:05:28;;;;;;;15.03;7.30;;;;;;;;;;5021469;28;20113;-81
2022/01/25 03:07:55;;;;;;;11.30;7.80;;;;;;;;;;5033644;28;20129;-77
2022/01/25 03:10:21;;;;;;;13.03;8.57;;;;;;;;;;5020732;28;20060;-79
2022/01/25 03:12:53;;;;;;;12.87;7.13;;;;;;;;;;5034325;28;20026;-78
2022/01/25 03:17:50;;;;;;;13.90;7.83;;;;;;;;;;5019600;28;20056;-79
2022/01/25 03:20:35;;;;;;;13.87;8.30;;;;;;;;;;5023399;28;20472;-78
2022/01/25 03:23:17;;;;;;;18.37;9.27;;;;;;;;;;5033919;28;20284;-80
2022/01/25 03:25:47;;;;;;;16.57;8.37;;;;;;;;;;5016466;28;20121;-76
2022/01/25 03:28:16;;;;;;;16.07;8.30;;;;;;;;;;5019099;28;20117;-82
2022/01/25 03:30:43;;;;;;;16.60;9.00;;;;;;;;;;5019020;28;20295;-79
2022/01/25 03:33:11;;;;;;;18.43;9.00;;;;;;;;;;5033494;28;21205;-79
2022/01/25 03:35:40;;;;;;;17.63;8.20;;;;;;;;;;5018200;28;20040;-80
2022/01/25 03:38:06;;;;;;;17.70;9.57;;;;;;;;;;5034802;28;20022;-79
2022/01/25 03:40:32;;;;;;;20.80;9.00;;;;;;;;;;5033072;28;20248;-79
2022/01/25 03:42:59;;;;;;;18.73;8.30;;;;;;;;;;5034523;28;20291;-80
2022/01/25 03:45:31;;;;;;;15.73;8.27;;;;;;;;;;5019172;28;20387;-77
2022/01/25 03:49:48;;;;;;;15.37;8.50;;;;;;;;;;5019017;28;20320;-81
2022/01/25 03:50:46;;;;;;;16.47;9.30;;;;;;;;;;5019718;28;20041;-81
2022/01/25 03:53:13;;;;;;;17.40;9.20;;;;;;;;;;5020379;28;20280;-79
2022/01/25 03:55:39;;;;;;;14.07;8.33;;;;;;;;;;5034059;28;20036;-81
2022/01/25 03:58:05;;;;;;;15.37;8.73;;;;;;;;;;5018036;28;20352;-76
2022/01/25 04:00:32;;;;;;;18.67;8.70;;;;;;;;;;5034117;28;20427;-80
2022/01/25 04:03:07;;;;;;;13.07;7.53;;;;;;;;;;5036361;28;20039;-78
2022/01/25 04:05:38;;;;;;;14.80;8.73;;;;;;;;;;5036253;28;20179;-82
2022/01/25 04:08:08;;;;;;;19.80;8.67;;;;;;;;;;5023374;28;20306;-81
2022/01/25 04:10:34;;;;;;;18.50;8.03;;;;;;;;;;5038708;28;20608;-80
2022/01/25 04:13:00;;;;;;;16.57;8.13;;;;;;;;;;5020750;28;20277;-81
2022/01/25 04:15:26;;;;;;;13.40;7.87;;;;;;;;;;5038521;28;20026;-80
2022/01/25 04:17:58;;;;;;;14.73;8.07;;;;;;;;;;5027798;28;20096;-80
2022/01/25 04:20:29;;;;;;;17.30;8.03;;;;;;;;;;5021487;28;20037;-77
2022/01/25 04:25:45;;;;;;;16.93;7.83;;;;;;;;;;5023344;28;20040;-79
2022/01/25 04:28:11;;;;;;;24.73;11.63;;;;;;;;;;5021745;28;20124;-80
2022/01/25 04:30:39;;;;;;;17.00;8.77;;;;;;;;;;5023190;28;20363;-78
2022/01/25 04:33:18;;;;;;;17.43;9.53;;;;;;;;;;5036731;28;20133;-80
2022/01/25 04:49:33;;;;;;;16.07;8.73;;;;;;;;;;5021159;28;20048;-78
2022/01/25 04:52:10;;;;;;;20.53;10.07;;;;;;;;;;5028256;28;20149;-80
2022/01/25 05:02:05;;;;;;;17.08;9.10;;;;;;;;;;5023186;28;20041;-81
2022/01/25 05:04:37;;;;;;;17.90;8.50;;;;;;;;;;5023010;28;20025;-77
2022/01/25 05:07:32;;;;;;;18.17;7.95;;;;;;;;;;5021452;28;20715;-79
2022/01/25 05:09:55;;;;;;;19.67;9.13;;;;;;;;;;5024223;28;20045;-80
2022/01/25 05:12:42;;;;;;;14.47;8.47;;;;;;;;;;5022752;28;20041;-79
2022/01/25 05:18:12;;;;;;;15.77;8.43;;;;;;;;;;5020458;28;20048;-76
2022/01/25 05:23:26;;;;;;;20.40;8.80;;;;;;;;;;5022158;28;20134;-79
2022/01/25 05:25:52;;;;;;;14.27;8.17;;;;;;;;;;5019455;28;20460;-79
2022/01/25 05:28:18;;;;;;;15.80;8.40;;;;;;;;;;5023249;28;20796;-80
2022/01/25 05:30:47;;;;;;;15.13;8.10;;;;;;;;;;5035512;28;20111;-78
2022/01/25 05:33:15;;;;;;;13.50;8.77;;;;;;;;;;5022149;28;20067;-79
2022/01/25 05:35:41;;;;;;;19.00;8.70;;;;;;;;;;5027851;28;20065;-77
2022/01/25 05:38:07;;;;;;;18.17;9.97;;;;;;;;;;5024291;28;20029;-80
2022/01/25 05:40:43;;;;;;;16.87;8.50;;;;;;;;;;5037441;28;20035;-80
2022/01/25 05:48:11;;;;;;;16.52;8.10;;;;;;;;;;5023239;28;20041;-79
2022/01/25 05:50:37;;;;;;;15.87;8.63;;;;;;;;;;5035593;28;20040;-78
2022/01/25 05:53:03;;;;;;;12.77;7.70;;;;;;;;;;5037135;28;20034;-77
2022/01/25 05:55:29;;;;;;;13.03;8.13;;;;;;;;;;5021545;28;20028;-79
2022/01/25 05:57:57;;;;;;;15.83;8.10;;;;;;;;;;5035725;28;20088;-79
2022/01/25 06:00:26;;;;;;;16.67;9.20;;;;;;;;;;5022936;28;21671;-78
2022/01/25 06:02:57;;;;;;;13.23;7.50;;;;;;;;;;5027502;28;20194;-79
2022/01/25 06:05:23;;;;;;;12.10;7.27;;;;;;;;;;5022544;28;20062;-81
2022/01/25 06:07:52;;;;;;;26.20;8.97;;;;;;;;;;5035201;28;20284;-79
2022/01/25 06:10:21;;;;;;;15.57;8.70;;;;;;;;;;5035346;28;20276;-77
2022/01/25 06:12:47;;;;;;;14.63;8.20;;;;;;;;;;5035889;28;20277;-80
2022/01/25 06:15:13;;;;;;;15.40;8.40;;;;;;;;;;5036298;28;20364;-79
2022/01/25 06:17:39;;;;;;;17.43;9.37;;;;;;;;;;5026387;28;20287;-80
2022/01/25 06:20:06;;;;;;;18.80;8.10;;;;;;;;;;5034768;28;20030;-80
2022/01/25 06:22:34;;;;;;;19.67;9.50;;;;;;;;;;5034554;28;20354;-80
2022/01/25 06:25:02;;;;;;;22.73;10.17;;;;;;;;;;5035684;28;20493;-80
2022/01/25 06:27:28;;;;;;;21.50;9.90;;;;;;;;;;5035237;28;20292;-81
2022/01/25 06:29:56;;;;;;;18.83;8.73;;;;;;;;;;5034364;28;20371;-81
2022/01/25 06:32:22;;;;;;;26.13;11.23;;;;;;;;;;5034371;28;20071;-79
2022/01/25 06:34:48;;;;;;;20.17;10.43;;;;;;;;;;5022744;28;20601;-81
2022/01/25 06:37:14;;;;;;;27.70;11.63;;;;;;;;;;5034429;28;20303;-78
2022/01/25 06:39:41;;;;;;;20.50;10.20;;;;;;;;;;5035689;28;20117;-78
2022/01/25 06:42:08;;;;;;;24.83;11.57;;;;;;;;;;5036290;28;20288;-80
2022/01/25 06:44:35;;;;;;;21.20;10.07;;;;;;;;;;5021278;28;20945;-79
2022/01/25 06:47:02;;;;;;;23.70;10.93;;;;;;;;;;5035075;28;20414;-77
2022/01/25 06:49:30;;;;;;;25.83;10.53;;;;;;;;;;5020501;28;20592;-80
2022/01/25 06:51:58;;;;;;;24.93;12.50;;;;;;;;;;5021859;28;20327;-78
2022/01/25 06:54:23;;;;;;;22.97;10.83;;;;;;;;;;5022296;28;20302;-76
2022/01/25 06:56:49;;;;;;;22.47;10.40;;;;;;;;;;5021393;28;21961;-82
2022/01/25 06:59:15;;;;;;;21.97;10.53;;;;;;;;;;5034797;28;20082;-78
2022/01/25 07:01:42;;;;;;;22.97;11.87;;;;;;;;;;5023952;28;20403;-76
2022/01/25 07:04:10;;;;;;;25.73;11.13;;;;;;;;;;5023811;28;20280;-80
2022/01/25 07:06:36;;;;;;;28.10;11.33;;;;;;;;;;5018914;28;20815;-77
2022/01/25 07:09:03;;;;;;;23.97;12.23;;;;;;;;;;5033493;28;20375;-80
2022/01/25 07:11:30;;;;;;;20.77;9.70;;;;;;;;;;5025097;28;20065;-79
2022/01/25 07:13:59;;;;;;;19.20;10.53;;;;;;;;;;5033514;28;20848;-79
2022/01/25 07:16:25;;;;;;;17.60;9.83;;;;;;;;;;5032461;28;20295;-79
2022/01/25 07:18:51;;;;;;;29.57;10.97;;;;;;;;;;5035536;28;20280;-76
2022/01/25 07:21:17;;;;;;;18.23;9.33;;;;;;;;;;5020129;28;20288;-79
2022/01/25 07:23:43;;;;;;;19.60;11.73;;;;;;;;;;5035537;28;20362;-77
2022/01/25 07:26:09;;;;;;;27.57;11.80;;;;;;;;;;5021635;28;20132;-79
2022/01/25 07:28:36;;;;;;;28.87;9.83;;;;;;;;;;5033878;28;20505;-81
2022/01/25 07:31:04;;;;;;;20.33;9.83;;;;;;;;;;5035540;28;20475;-80
2022/01/25 07:33:30;;;;;;;29.70;10.73;;;;;;;;;;5034926;28;20286;-80
2022/01/25 07:35:59;;;;;;;21.10;11.13;;;;;;;;;;5019303;28;21138;-80
2022/01/25 07:38:25;;;;;;;23.83;11.20;;;;;;;;;;5019832;28;20284;-81
2022/01/25 07:40:51;;;;;;;22.63;10.27;;;;;;;;;;5020256;28;20275;-81
2022/01/25 07:43:17;;;;;;;18.33;10.70;;;;;;;;;;5018165;28;20374;-79
2022/01/25 07:45:50;;;;;;;25.13;11.13;;;;;;;;;;5034417;28;20366;-78
2022/01/25 07:48:16;;;;;;;23.58;12.05;;;;;;;;;;5020574;28;20349;-82
2022/01/25 07:50:42;;;;;;;21.20;10.13;;;;;;;;;;5017262;28;20132;-81
2022/01/25 07:53:08;;;;;;;25.40;10.73;;;;;;;;;;5018460;28;20030;-77
2022/01/25 07:55:35;;;;;;;16.53;9.80;;;;;;;;;;5020652;28;20038;-80
2022/01/25 07:58:01;;;;;;;22.27;10.97;;;;;;;;;;5017517;28;20116;-80
2022/01/25 08:00:27;;;;;;;19.40;10.07;;;;;;;;;;5032628;28;20129;-77
2022/01/25 08:02:53;;;;;;;21.60;9.70;;;;;;;;;;5024846;28;20038;-80
2022/01/25 08:05:20;;;;;;;22.13;10.17;;;;;;;;;;5033861;28;20037;-81
2022/01/25 08:07:46;;;;;;;16.20;9.47;;;;;;;;;;5020655;28;20040;-81
2022/01/25 08:10:12;;;;;;;17.67;10.00;;;;;;;;;;5024069;28;20088;-78
2022/01/25 08:12:38;;;;;;;22.63;12.63;;;;;;;;;;5017592;28;20034;-77
2022/01/25 08:15:05;;;;;;;20.07;10.97;;;;;;;;;;5034654;28;20044;-80
2022/01/25 08:17:32;;;;;;;17.67;10.10;;;;;;;;;;5032731;28;20030;-80
2022/01/25 08:19:58;;;;;;;17.50;8.43;;;;;;;;;;5019350;28;20397;-77
2022/01/25 08:22:24;;;;;;;16.97;10.00;;;;;;;;;;5032976;28;20038;-78
2022/01/25 08:24:50;;;;;;;18.70;9.97;;;;;;;;;;5019956;28;21802;-81
2022/01/25 08:27:20;;;;;;;22.67;10.33;;;;;;;;;;5019369;28;20046;-80
2022/01/25 08:29:49;;;;;;;21.03;9.80;;;;;;;;;;5034523;28;20393;-79
2022/01/25 08:32:15;;;;;;;24.43;9.87;;;;;;;;;;5032957;28;20021;-77
2022/01/25 08:34:42;;;;;;;17.00;9.33;;;;;;;;;;5024495;28;20410;-81
2022/01/25 08:37:08;;;;;;;27.37;11.57;;;;;;;;;;5034488;28;20064;-80
2022/01/25 08:39:34;;;;;;;22.47;10.90;;;;;;;;;;5022603;28;20349;-79
2022/01/25 08:42:00;;;;;;;23.30;10.57;;;;;;;;;;5034579;28;20311;-81
2022/01/25 08:44:26;;;;;;;31.33;12.57;;;;;;;;;;5019441;28;21045;-80
2022/01/25 08:46:52;;;;;;;24.07;11.17;;;;;;;;;;5021503;28;20387;-77
2022/01/25 08:49:20;;;;;;;26.33;11.23;;;;;;;;;;5035050;28;20478;-78
2022/01/25 08:51:48;;;;;;;28.33;12.33;;;;;;;;;;5020886;28;20308;-78
2022/01/25 08:54:14;;;;;;;26.93;11.33;;;;;;;;;;5024862;28;20299;-77
2022/01/25 08:56:41;;;;;;;28.70;11.80;;;;;;;;;;5028607;28;20280;-78
2022/01/25 08:59:07;;;;;;;28.83;11.87;;;;;;;;;;5023167;28;20287;-79
2022/01/25 09:01:33;;;;;;;24.93;11.20;;;;;;;;;;5023095;28;20302;-79
2022/01/25 09:04:01;;;;;;;27.47;10.90;;;;;;;;;;5023177;28;20342;-77
2022/01/25 09:06:27;;;;;;;37.93;11.87;;;;;;;;;;5036638;28;20383;-80
2022/01/25 09:08:58;;;;;;;27.57;11.90;;;;;;;;;;5036828;28;20384;-78
2022/01/25 09:11:24;;;;;;;31.97;12.20;;;;;;;;;;5029020;28;20276;-81
2022/01/25 09:13:53;;;;;;;26.60;11.53;;;;;;;;;;5036802;28;20286;-79
2022/01/25 09:16:19;;;;;;;33.40;11.57;;;;;;;;;;5037657;28;20040;-79
2022/01/25 09:18:47;;;;;;;33.73;12.03;;;;;;;;;;5022611;28;20748;-78
2022/01/25 09:21:13;;;;;;;37.93;12.70;;;;;;;;;;5038744;28;20422;-80
2022/01/25 09:23:39;;;;;;;29.30;10.03;;;;;;;;;;5021077;28;20350;-81
2022/01/25 09:26:09;;;;;;;40.17;12.70;;;;;;;;;;5037973;28;20653;-79
2022/01/25 09:28:37;;;;;;;38.67;12.17;;;;;;;;;;5037174;28;20422;-80
2022/01/25 09:31:04;;;;;;;29.77;10.13;;;;;;;;;;5036558;28;20605;-78
2022/01/25 09:33:30;;;;;;;32.00;12.90;;;;;;;;;;5038371;28;20295;-79
2022/01/25 09:35:59;;;;;;;40.33;12.90;;;;;;;;;;5035838;28;20306;-79
2022/01/25 09:38:25;;;;;;;28.57;10.67;;;;;;;;;;5035870;28;20605;-78
2022/01/25 09:40:51;;;;;;;33.83;11.60;;;;;;;;;;5037677;28;20330;-79
2022/01/25 09:43:19;;;;;;;32.27;11.57;;;;;;;;;;5027009;28;20276;-79
2022/01/25 09:45:46;;;;;;;33.97;12.90;;;;;;;;;;5022242;28;20283;-80
2022/01/25 09:48:12;;;;;;;36.37;10.50;;;;;;;;;;5021745;28;20292;-81
2022/01/25 09:50:39;;;;;;;31.53;12.20;;;;;;;;;;5034716;28;20276;-78
2022/01/25 09:53:08;;;;;;;33.47;11.33;;;;;;;;;;5027305;28;20372;-79
2022/01/25 09:55:35;;;;;;;26.13;11.00;;;;;;;;;;5037585;28;20030;-77
2022/01/25 09:58:02;;;;;;;27.97;11.37;;;;;;;;;;5026032;28;20596;-79
2022/01/25 10:00:29;;;;;;;29.80;11.33;;;;;;;;;;5025492;28;20602;-77
2022/01/25 10:05:56;;;;;;;25.07;10.13;;;;;;;;;;5030801;28;20272;-79
2022/01/25 10:08:28;;;;;;;27.20;10.73;;;;;;;;;;5035658;28;20315;-78
2022/01/25 10:10:54;;;;;;;36.72;12.10;;;;;;;;;;5026429;28;21830;-81
2022/01/25 10:13:31;;;;;;;38.37;11.77;;;;;;;;;;5026106;28;20018;-81
2022/01/25 10:16:06;;;;;;;34.07;11.23;;;;;;;;;;5035949;28;20025;-80
2022/01/25 10:18:39;;;;;;;28.83;10.13;;;;;;;;;;5036606;28;20336;-78
2022/01/25 10:21:11;;;;;;;37.67;13.37;;;;;;;;;;5021948;28;20288;-79
2022/01/25 10:23:37;;;;;;;33.00;11.00;;;;;;;;;;5022033;28;20307;-78
2022/01/25 10:26:04;;;;;;;32.17;10.57;;;;;;;;;;5035656;28;20033;-80
2022/01/25 10:28:33;;;;;;;25.10;9.57;;;;;;;;;;5021473;28;20457;-78
2022/01/25 10:31:04;;;;;;;31.33;10.80;;;;;;;;;;5022536;28;20268;-78
2022/01/25 10:33:34;;;;;;;29.47;10.67;;;;;;;;;;5022693;28;20345;-79
2022/01/25 10:36:02;;;;;;;26.20;9.90;;;;;;;;;;5035097;28;20268;-78
2022/01/25 10:38:32;;;;;;;23.27;10.30;;;;;;;;;;5021205;28;20286;-80
2022/01/25 10:41:00;;;;;;;22.43;10.43;;;;;;;;;;5035690;28;20029;-79
2022/01/25 10:43:26;;;;;;;24.23;8.37;;;;;;;;;;5019320;28;20334;-81
2022/01/25 10:46:13;;;;;;;25.00;9.87;;;;;;;;;;5023034;28;20132;-81
2022/01/25 10:48:41;;;;;;;26.37;10.20;;;;;;;;;;5019527;28;20369;-80
2022/01/25 10:51:08;;;;;;;29.37;8.97;;;;;;;;;;5035970;28;20286;-82
2022/01/25 10:53:35;;;;;;;24.33;10.17;;;;;;;;;;5023080;28;20286;-80
2022/01/25 10:56:01;;;;;;;27.10;9.80;;;;;;;;;;5034112;28;20276;-80
2022/01/25 10:58:27;;;;;;;24.50;10.23;;;;;;;;;;5019630;28;20268;-78
2022/01/25 11:00:58;;;;;;;28.53;9.60;;;;;;;;;;5025768;28;20284;-79
2022/01/25 11:03:27;;;;;;;29.33;10.17;;;;;;;;;;5021981;28;20272;-78
2022/01/25 11:05:53;;;;;;;21.70;9.77;;;;;;;;;;5035033;28;20342;-77
2022/01/25 11:08:20;;;;;;;28.13;9.83;;;;;;;;;;5035208;28;20431;-79
2022/01/25 11:10:52;;;;;;;31.33;11.43;;;;;;;;;;5019207;28;20713;-78
2022/01/25 11:13:34;;;;;;;23.85;10.68;;;;;;;;;;5034188;28;20277;-79
2022/01/25 11:16:02;;;;;;;24.77;10.35;;;;;;;;;;5025806;28;20029;-78
2022/01/25 11:18:31;;;;;;;23.57;9.07;;;;;;;;;;5018050;28;20501;-79
2022/01/25 11:20:59;;;;;;;25.73;9.43;;;;;;;;;;5035078;28;20280;-80
2022/01/25 11:23:25;;;;;;;26.77;9.63;;;;;;;;;;5021993;28;20289;-78
2022/01/25 11:25:51;;;;;;;34.33;10.00;;;;;;;;;;5021465;28;20280;-78
2022/01/25 11:28:17;;;;;;;36.17;11.17;;;;;;;;;;5021033;28;20291;-78
2022/01/25 11:30:45;;;;;;;33.10;11.33;;;;;;;;;;5020884;28;20272;-80
2022/01/25 11:33:12;;;;;;;28.93;9.53;;;;;;;;;;5033297;28;20143;-81
2022/01/25 11:35:38;;;;;;;28.70;10.77;;;;;;;;;;5018399;28;20030;-79
2022/01/25 11:38:05;;;;;;;23.70;10.13;;;;;;;;;;5034934;28;20292;-78
2022/01/25 11:40:39;;;;;;;26.37;11.40;;;;;;;;;;5034781;28;20287;-78
2022/01/25 11:43:07;;;;;;;26.60;9.30;;;;;;;;;;5019810;28;20474;-78
2022/01/25 11:45:53;;;;;;;24.93;10.23;;;;;;;;;;5023549;28;20284;-80
2022/01/25 11:48:22;;;;;;;29.10;10.33;;;;;;;;;;5020069;28;20038;-77
2022/01/25 11:50:48;;;;;;;33.13;11.83;;;;;;;;;;5022399;28;21172;-78
2022/01/25 11:53:19;;;;;;;26.53;11.27;;;;;;;;;;5019495;28;20037;-80
2022/01/25 11:55:48;;;;;;;30.10;11.90;;;;;;;;;;5020847;28;20040;-78
2022/01/25 11:58:26;;;;;;;32.00;12.10;;;;;;;;;;5020929;28;20271;-77
2022/01/25 12:00:53;;;;;;;22.33;9.97;;;;;;;;;;5034415;28;20052;-80
2022/01/25 12:03:19;;;;;;;24.57;11.00;;;;;;;;;;5034191;28;20333;-81
2022/01/25 12:06:00;;;;;;;24.53;11.00;;;;;;;;;;5034549;28;20033;-80
2022/01/25 12:11:29;;;;;;;32.10;11.43;;;;;;;;;;5020067;28;20607;-78
2022/01/25 12:14:10;;;;;;;22.33;10.17;;;;;;;;;;5032691;28;20040;-79
2022/01/25 12:16:46;;;;;;;24.63;10.60;;;;;;;;;;5020634;28;20030;-81
2022/01/25 12:19:15;;;;;;;29.07;10.77;;;;;;;;;;5031553;28;20056;-78
2022/01/25 12:21:48;;;;;;;25.20;10.50;;;;;;;;;;5034635;28;20447;-82
2022/01/25 12:24:38;;;;;;;23.57;9.13;;;;;;;;;;5022622;28;20033;-78
2022/01/25 12:27:29;;;;;;;24.07;9.23;;;;;;;;;;5024054;28;20120;-79
2022/01/25 12:30:08;;;;;;;26.70;10.37;;;;;;;;;;5023901;28;20091;-81
2022/01/25 12:32:38;;;;;;;29.90;11.20;;;;;;;;;;5028584;28;20029;-80
2022/01/25 12:35:06;;;;;;;46.50;15.47;;;;;;;;;;5023321;28;20088;-80
2022/01/25 12:37:44;;;;;;;30.30;11.20;;;;;;;;;;5038547;28;20037;-80
2022/01/25 12:40:25;;;;;;;21.73;9.20;;;;;;;;;;5022945;28;20597;-80
2022/01/25 12:43:14;;;;;;;30.27;10.40;;;;;;;;;;5034971;28;20037;-76
2022/01/25 12:45:45;;;;;;;35.23;9.10;;;;;;;;;;5002664;28;20276;-81
2022/01/25 12:48:14;;;;;;;21.93;9.50;;;;;;;;;;5028735;28;20481;-78
2022/01/25 12:50:51;;;;;;;23.37;10.90;;;;;;;;;;5025200;28;20033;-77
2022/01/25 12:53:19;;;;;;;20.80;9.37;;;;;;;;;;5022738;28;20206;-79
2022/01/25 12:55:48;;;;;;;27.13;10.30;;;;;;;;;;5023582;28;20041;-79
2022/01/25 12:58:14;;;;;;;22.30;11.13;;;;;;;;;;5020493;28;20377;-80
2022/01/25 13:00:42;;;;;;;23.50;10.90;;;;;;;;;;5024290;28;20043;-78
2022/01/25 13:03:17;;;;;;;30.17;10.70;;;;;;;;;;5028075;28;20076;-82
2022/01/25 13:05:47;;;;;;;19.73;8.83;;;;;;;;;;5036984;28;20045;-80
2022/01/25 13:08:14;;;;;;;25.50;11.13;;;;;;;;;;5028356;28;20033;-79
2022/01/25 13:10:43;;;;;;;23.67;9.83;;;;;;;;;;5023316;28;20469;-78
2022/01/25 13:13:23;;;;;;;20.17;10.07;;;;;;;;;;5020813;28;20031;-82
2022/01/25 13:18:15;;;;;;;18.13;9.47;;;;;;;;;;5022913;28;20409;-78
2022/01/25 13:20:43;;;;;;;27.33;11.80;;;;;;;;;;5024385;28;20066;-78
2022/01/25 13:23:09;;;;;;;26.00;10.80;;;;;;;;;;5022901;28;20029;-78
2022/01/25 13:25:54;;;;;;;20.63;10.50;;;;;;;;;;5037467;28;20065;-79
2022/01/25 13:28:34;;;;;;;22.83;10.43;;;;;;;;;;5027274;28;20057;-78
2022/01/25 13:31:06;;;;;;;31.77;11.70;;;;;;;;;;5036780;28;20102;-82
2022/01/25 13:33:35;;;;;;;27.83;11.63;;;;;;;;;;5023788;28;20044;-79
2022/01/25 13:36:01;;;;;;;23.20;11.03;;;;;;;;;;5023053;28;20025;-81
2022/01/25 13:38:36;;;;;;;23.63;12.03;;;;;;;;;;5025692;28;20121;-81
2022/01/25 13:46:37;;;;;;;30.00;11.67;;;;;;;;;;5024233;28;20045;-78
2022/01/25 13:49:13;;;;;;;36.70;12.50;;;;;;;;;;5034418;28;20033;-76
2022/01/25 13:51:41;;;;;;;38.97;11.83;;;;;;;;;;5023263;28;20364;-80
2022/01/25 13:54:09;;;;;;;31.97;11.90;;;;;;;;;;5027540;28;20247;-79
2022/01/25 13:56:36;;;;;;;28.10;11.30;;;;;;;;;;5037599;28;20076;-80
2022/01/25 13:59:03;;;;;;;31.77;11.83;;;;;;;;;;5037974;28;20036;-78
2022/01/25 14:01:33;;;;;;;28.37;11.40;;;;;;;;;;5024346;28;20021;-80
2022/01/25 14:04:01;;;;;;;29.77;10.73;;;;;;;;;;5038723;28;20060;-79
2022/01/25 14:06:53;;;;;;;24.87;10.97;;;;;;;;;;5038306;28;20025;-79
2022/01/25 14:09:28;;;;;;;30.10;12.80;;;;;;;;;;5018632;28;20038;-79
2022/01/25 14:25:39;;;;;;;23.90;10.40;;;;;;;;;;5023432;28;20046;-77
2022/01/25 14:28:06;;;;;;;20.63;11.43;;;;;;;;;;5037460;28;20026;-76
2022/01/25 14:30:37;;;;;;;26.63;12.10;;;;;;;;;;5037220;28;20021;-78
2022/01/25 14:33:10;;;;;;;25.63;13.13;;;;;;;;;;5022901;28;20105;-81
2022/01/25 14:35:40;;;;;;;26.37;12.60;;;;;;;;;;5034774;28;20026;-81
2022/01/25 14:38:06;;;;;;;28.77;10.60;;;;;;;;;;5039378;28;20025;-77
2022/01/25 14:40:32;;;;;;;30.27;13.10;;;;;;;;;;5036119;28;20037;-76
2022/01/25 14:42:58;;;;;;;24.97;12.03;;;;;;;;;;5027726;28;20041;-80
2022/01/25 14:45:25;;;;;;;23.27;10.80;;;;;;;;;;5036578;28;20402;-78
2022/01/25 14:47:54;;;;;;;22.13;11.57;;;;;;;;;;5025912;28;20036;-78
2022/01/25 14:50:22;;;;;;;24.87;11.67;;;;;;;;;;5022714;28;20416;-79
2022/01/25 14:53:07;;;;;;;20.00;10.60;;;;;;;;;;5036847;28;20044;-78
2022/01/25 14:55:34;;;;;;;23.47;11.73;;;;;;;;;;5026444;28;20021;-78
2022/01/25 14:58:10;;;;;;;24.20;11.90;;;;;;;;;;5025191;28;20060;-78
2022/01/25 15:00:41;;;;;;;27.07;11.03;;;;;;;;;;5021367;28;20354;-80
2022/01/25 15:03:07;;;;;;;23.23;12.13;;;;;;;;;;5017997;28;20041;-80
2022/01/25 15:05:33;;;;;;;24.73;12.57;;;;;;;;;;5021880;28;20040;-80
2022/01/25 15:07:59;;;;;;;25.20;12.03;;;;;;;;;;5025151;28;20052;-78
2022/01/25 15:10:31;;;;;;;30.03;12.33;;;;;;;;;;5020622;28;20545;-80
2022/01/25 15:12:57;;;;;;;25.67;10.87;;;;;;;;;;5019457;28;20930;-78
2022/01/25 15:15:29;;;;;;;24.20;11.80;;;;;;;;;;5020440;28;20030;-81
2022/01/25 15:17:55;;;;;;;23.15;10.85;;;;;;;;;;5025421;28;20450;-78
2022/01/25 15:20:22;;;;;;;24.93;10.87;;;;;;;;;;5020601;28;20410;-78
2022/01/25 15:22:51;;;;;;;23.63;12.07;;;;;;;;;;5025011;28;20037;-82
2022/01/25 15:25:22;;;;;;;24.47;11.17;;;;;;;;;;5034656;28;20037;-79
2022/01/25 15:27:52;;;;;;;23.77;11.70;;;;;;;;;;5032387;28;20039;-81
2022/01/25 15:30:19;;;;;;;22.23;11.57;;;;;;;;;;5018444;28;20618;-79
2022/01/25 15:32:49;;;;;;;19.80;10.40;;;;;;;;;;5019876;28;20034;-80
2022/01/25 15:35:15;;;;;;;22.80;11.40;;;;;;;;;;5019677;28;20056;-81
2022/01/25 15:37:44;;;;;;;21.27;9.57;;;;;;;;;;5019456;28;20056;-81
2022/01/25 15:40:10;;;;;;;20.20;9.50;;;;;;;;;;5020043;28;20037;-82
2022/01/25 15:42:36;;;;;;;19.83;9.73;;;;;;;;;;5032428;28;20041;-80
2022/01/25 15:45:11;;;;;;;20.90;10.83;;;;;;;;;;5019046;28;20374;-81
2022/01/25 15:47:37;;;;;;;20.30;9.00;;;;;;;;;;5034347;28;20038;-77
2022/01/25 15:50:04;;;;;;;23.73;10.00;;;;;;;;;;5034694;28;20041;-79
2022/01/25 15:52:32;;;;;;;21.90;10.23;;;;;;;;;;5021532;28;20508;-80
2022/01/25 15:55:00;;;;;;;24.00;9.70;;;;;;;;;;5020315;28;20072;-79
2022/01/25 15:57:26;;;;;;;24.93;11.27;;;;;;;;;;5033502;28;20037;-79
2022/01/25 15:59:52;;;;;;;19.80;10.60;;;;;;;;;;5027514;28;20037;-79
2022/01/25 16:02:19;;;;;;;20.90;10.40;;;;;;;;;;5022768;28;20041;-80
2022/01/25 16:04:46;;;;;;;21.23;11.90;;;;;;;;;;5037421;28;20033;-80
2022/01/25 16:07:13;;;;;;;20.47;10.00;;;;;;;;;;5038047;28;20836;-81
2022/01/25 16:09:42;;;;;;;25.30;11.57;;;;;;;;;;5036640;28;20047;-79
2022/01/25 16:12:09;;;;;;;25.67;11.97;;;;;;;;;;5024617;28;20124;-79
2022/01/25 16:14:35;;;;;;;23.27;10.80;;;;;;;;;;5038378;28;20729;-79
2022/01/25 16:17:02;;;;;;;21.63;11.97;;;;;;;;;;5037730;28;20033;-80
2022/01/25 16:19:30;;;;;;;24.37;11.03;;;;;;;;;;5022249;28;20060;-80
2022/01/25 16:21:56;;;;;;;26.77;12.50;;;;;;;;;;5039117;28;20077;-80
2022/01/25 16:24:23;;;;;;;27.57;12.20;;;;;;;;;;5024867;28;20033;-81
2022/01/25 16:26:49;;;;;;;24.93;11.20;;;;;;;;;;5037681;28;20114;-82
2022/01/25 16:29:16;;;;;;;27.60;12.73;;;;;;;;;;5038174;28;20029;-79
2022/01/25 16:31:43;;;;;;;27.23;9.53;;;;;;;;;;5025048;28;20045;-80
2022/01/25 16:34:10;;;;;;;27.60;12.90;;;;;;;;;;5024481;28;20040;-79
2022/01/25 16:36:37;;;;;;;27.73;12.67;;;;;;;;;;5037707;28;20030;-79
2022/01/25 16:39:05;;;;;;;28.70;10.73;;;;;;;;;;5036106;28;20038;-78
2022/01/25 16:41:31;;;;;;;26.93;11.37;;;;;;;;;;5025210;28;20048;-79
2022/01/25 16:43:57;;;;;;;27.40;10.63;;;;;;;;;;5028001;28;20037;-81